sensor_id;sensor_type;location;lat;lon;timestamp;pressure;altitude;pressure_sealevel;temperature;humidity
10079;BME280;5078;42.544;22.966;2024-03-06T00:00:42;93680.91;;;4.18;76.69
10079;BME280;5078;42.544;22.966;2024-03-06T00:03:09;93686.22;;;4.12;76.86
10079;BME280;5078;42.544;22.966;2024-03-06T00:05:35;93692.06;;;3.64;78.88
10079;BME280;5078;42.544;22.966;2024-03-06T00:08:04;93695.81;;;3.78;78.64
10079;BME280;5078;42.544;22.966;2024-03-06T00:10:31;93695.19;;;4.09;77.76
10079;BME280;5078;42.544;22.966;2024-03-06T00:12:58;93653.25;;;3.99;76.95
10079;BME280;5078;42.544;22.966;2024-03-06T00:15:25;93683.03;;;4.26;75.94
10079;BME280;5078;42.544;22.966;2024-03-06T00:17:52;93682.75;;;4.23;75.67
10079;BME280;5078;42.544;22.966;2024-03-06T00:20:19;93683.72;;;4.17;75.58
10079;BME280;5078;42.544;22.966;2024-03-06T00:22:47;93695.47;;;3.91;77.09
10079;BME280;5078;42.544;22.966;2024-03-06T00:25:15;93668.59;;;3.72;77.46
10079;BME280;5078;42.544;22.966;2024-03-06T00:27:41;93684.72;;;4.16;76.16
10079;BME280;5078;42.544;22.966;2024-03-06T00:30:09;93687.88;;;4.23;75.76
10079;BME280;5078;42.544;22.966;2024-03-06T00:32:36;93694.91;;;4.11;76.39
10079;BME280;5078;42.544;22.966;2024-03-06T00:35:03;93694.00;;;4.22;75.26
10079;BME280;5078;42.544;22.966;2024-03-06T00:37:30;93690.63;;;4.16;75.40
10079;BME280;5078;42.544;22.966;2024-03-06T00:39:56;93675.59;;;3.81;76.25
10079;BME280;5078;42.544;22.966;2024-03-06T00:42:24;93688.06;;;4.16;75.48
10079;BME280;5078;42.544;22.966;2024-03-06T00:44:51;93687.19;;;4.06;76.04
10079;BME280;5078;42.544;22.966;2024-03-06T00:47:18;93696.25;;;3.91;76.95
10079;BME280;5078;42.544;22.966;2024-03-06T00:49:45;93694.03;;;4.00;76.36
10079;BME280;5078;42.544;22.966;2024-03-06T00:52:12;93692.34;;;4.11;76.37
10079;BME280;5078;42.544;22.966;2024-03-06T00:54:38;93697.00;;;3.92;76.33
10079;BME280;5078;42.544;22.966;2024-03-06T00:57:05;93685.38;;;3.84;76.86
10079;BME280;5078;42.544;22.966;2024-03-06T00:59:33;93654.50;;;3.74;76.34
10079;BME280;5078;42.544;22.966;2024-03-06T01:02:00;93689.91;;;3.77;76.17
10079;BME280;5078;42.544;22.966;2024-03-06T01:04:26;93694.41;;;3.87;76.26
10079;BME280;5078;42.544;22.966;2024-03-06T01:06:53;93694.38;;;3.43;76.30
10079;BME280;5078;42.544;22.966;2024-03-06T01:09:20;93701.50;;;3.80;75.73
10079;BME280;5078;42.544;22.966;2024-03-06T01:11:48;93681.91;;;3.74;75.05
10079;BME280;5078;42.544;22.966;2024-03-06T01:14:15;93650.66;;;3.33;75.90
10079;BME280;5078;42.544;22.966;2024-03-06T01:16:43;93700.25;;;3.82;75.13
10079;BME280;5078;42.544;22.966;2024-03-06T01:19:10;93712.09;;;3.67;75.33
10079;BME280;5078;42.544;22.966;2024-03-06T01:21:38;93699.56;;;3.92;74.65
10079;BME280;5078;42.544;22.966;2024-03-06T01:24:05;93692.13;;;3.90;74.85
10079;BME280;5078;42.544;22.966;2024-03-06T01:26:31;93723.88;;;4.06;74.02
10079;BME280;5078;42.544;22.966;2024-03-06T01:28:58;93709.31;;;4.12;73.89
10079;BME280;5078;42.544;22.966;2024-03-06T01:31:24;93710.44;;;3.99;74.08
10079;BME280;5078;42.544;22.966;2024-03-06T01:33:52;93712.66;;;4.12;73.82
10079;BME280;5078;42.544;22.966;2024-03-06T01:36:19;93704.53;;;3.99;73.33
10079;BME280;5078;42.544;22.966;2024-03-06T01:38:46;93693.63;;;3.65;74.17
10079;BME280;5078;42.544;22.966;2024-03-06T01:41:13;93717.50;;;3.70;73.76
10079;BME280;5078;42.544;22.966;2024-03-06T01:43:40;93699.97;;;3.62;74.20
10079;BME280;5078;42.544;22.966;2024-03-06T01:46:07;93708.03;;;3.71;74.02
10079;BME280;5078;42.544;22.966;2024-03-06T01:48:34;93714.03;;;3.60;73.64
10079;BME280;5078;42.544;22.966;2024-03-06T01:51:03;93716.16;;;3.46;75.04
10079;BME280;5078;42.544;22.966;2024-03-06T01:53:32;93722.22;;;3.40;75.54
10079;BME280;5078;42.544;22.966;2024-03-06T01:55:59;93724.34;;;3.10;76.16
10079;BME280;5078;42.544;22.966;2024-03-06T01:58:26;93716.97;;;3.13;76.54
10079;BME280;5078;42.544;22.966;2024-03-06T02:00:54;93686.31;;;2.85;76.72
10079;BME280;5078;42.544;22.966;2024-03-06T02:03:20;93715.56;;;2.72;78.12
10079;BME280;5078;42.544;22.966;2024-03-06T02:05:48;93714.50;;;3.02;77.48
10079;BME280;5078;42.544;22.966;2024-03-06T02:08:16;93727.84;;;3.20;76.61
10079;BME280;5078;42.544;22.966;2024-03-06T02:10:44;93738.88;;;3.21;76.50
10079;BME280;5078;42.544;22.966;2024-03-06T02:13:11;93719.53;;;3.30;75.38
10079;BME280;5078;42.544;22.966;2024-03-06T02:15:38;93716.06;;;3.03;75.81
10079;BME280;5078;42.544;22.966;2024-03-06T02:18:05;93715.09;;;2.92;77.34
10079;BME280;5078;42.544;22.966;2024-03-06T02:20:33;93722.97;;;3.02;76.99
10079;BME280;5078;42.544;22.966;2024-03-06T02:23:00;93629.63;;;2.15;77.19
10079;BME280;5078;42.544;22.966;2024-03-06T02:25:28;93707.19;;;2.93;77.27
10079;BME280;5078;42.544;22.966;2024-03-06T02:27:54;93689.41;;;2.70;77.75
10079;BME280;5078;42.544;22.966;2024-03-06T02:30:21;93731.69;;;2.73;78.55
10079;BME280;5078;42.544;22.966;2024-03-06T02:32:48;93722.09;;;2.97;78.11
10079;BME280;5078;42.544;22.966;2024-03-06T02:35:14;93732.88;;;3.15;77.34
10079;BME280;5078;42.544;22.966;2024-03-06T02:37:42;93712.03;;;3.07;76.71
10079;BME280;5078;42.544;22.966;2024-03-06T02:40:10;93730.47;;;3.09;76.59
10079;BME280;5078;42.544;22.966;2024-03-06T02:42:37;93723.97;;;3.01;76.46
10079;BME280;5078;42.544;22.966;2024-03-06T02:45:06;93735.75;;;3.02;75.91
10079;BME280;5078;42.544;22.966;2024-03-06T02:47:33;93741.78;;;2.96;76.70
10079;BME280;5078;42.544;22.966;2024-03-06T02:49:59;93752.66;;;2.86;77.17
10079;BME280;5078;42.544;22.966;2024-03-06T02:52:26;93738.91;;;2.76;76.62
10079;BME280;5078;42.544;22.966;2024-03-06T02:54:54;93744.97;;;2.86;76.03
10079;BME280;5078;42.544;22.966;2024-03-06T02:57:21;93737.03;;;2.55;77.21
10079;BME280;5078;42.544;22.966;2024-03-06T02:59:48;93744.91;;;2.98;76.04
10079;BME280;5078;42.544;22.966;2024-03-06T03:02:14;93752.72;;;2.47;77.35
10079;BME280;5078;42.544;22.966;2024-03-06T03:04:41;93749.22;;;2.36;78.28
10079;BME280;5078;42.544;22.966;2024-03-06T03:07:08;93716.97;;;2.52;76.83
10079;BME280;5078;42.544;22.966;2024-03-06T03:09:35;93749.63;;;2.89;76.16
10079;BME280;5078;42.544;22.966;2024-03-06T03:12:05;93745.84;;;3.09;75.30
10079;BME280;5078;42.544;22.966;2024-03-06T03:14:31;93754.22;;;3.21;75.11
10079;BME280;5078;42.544;22.966;2024-03-06T03:17:00;93755.47;;;3.02;75.24
10079;BME280;5078;42.544;22.966;2024-03-06T03:19:27;93750.44;;;3.07;75.36
10079;BME280;5078;42.544;22.966;2024-03-06T03:21:54;93747.25;;;3.16;75.11
10079;BME280;5078;42.544;22.966;2024-03-06T03:24:21;93744.22;;;3.03;75.31
10079;BME280;5078;42.544;22.966;2024-03-06T03:26:49;93755.00;;;3.05;73.96
10079;BME280;5078;42.544;22.966;2024-03-06T03:29:17;93753.13;;;2.83;75.11
10079;BME280;5078;42.544;22.966;2024-03-06T03:31:44;93768.31;;;2.73;76.00
10079;BME280;5078;42.544;22.966;2024-03-06T03:34:11;93628.22;;;1.51;77.18
10079;BME280;5078;42.544;22.966;2024-03-06T03:36:40;93768.13;;;2.35;77.85
10079;BME280;5078;42.544;22.966;2024-03-06T03:39:07;93750.84;;;2.42;76.59
10079;BME280;5078;42.544;22.966;2024-03-06T03:41:42;93759.91;;;2.78;75.86
10079;BME280;5078;42.544;22.966;2024-03-06T03:44:11;93766.16;;;2.54;76.77
10079;BME280;5078;42.544;22.966;2024-03-06T03:46:39;93768.75;;;2.02;78.26
10079;BME280;5078;42.544;22.966;2024-03-06T03:49:06;93770.97;;;2.50;77.13
10079;BME280;5078;42.544;22.966;2024-03-06T03:51:34;93782.25;;;2.26;77.36
10079;BME280;5078;42.544;22.966;2024-03-06T03:54:01;93773.16;;;2.58;77.06
10079;BME280;5078;42.544;22.966;2024-03-06T03:56:27;93779.38;;;2.62;76.46
10079;BME280;5078;42.544;22.966;2024-03-06T03:58:55;93778.09;;;2.76;76.17
10079;BME280;5078;42.544;22.966;2024-03-06T04:01:22;93789.19;;;2.54;75.75
10079;BME280;5078;42.544;22.966;2024-03-06T04:03:50;93795.19;;;2.19;77.61
10079;BME280;5078;42.544;22.966;2024-03-06T04:06:17;93798.09;;;2.51;76.99
10079;BME280;5078;42.544;22.966;2024-03-06T04:08:45;93797.66;;;2.54;76.33
10079;BME280;5078;42.544;22.966;2024-03-06T04:11:11;93794.53;;;2.80;75.92
10079;BME280;5078;42.544;22.966;2024-03-06T04:13:38;93763.25;;;2.62;75.29
10079;BME280;5078;42.544;22.966;2024-03-06T04:16:05;93805.59;;;2.29;76.98
10079;BME280;5078;42.544;22.966;2024-03-06T04:18:32;93809.09;;;2.52;76.74
10079;BME280;5078;42.544;22.966;2024-03-06T04:21:03;93805.03;;;2.67;75.70
10079;BME280;5078;42.544;22.966;2024-03-06T04:23:30;93769.25;;;2.56;75.40
10079;BME280;5078;42.544;22.966;2024-03-06T04:25:57;93805.47;;;2.76;75.79
10079;BME280;5078;42.544;22.966;2024-03-06T04:28:24;93806.31;;;2.81;75.00
10079;BME280;5078;42.544;22.966;2024-03-06T04:30:50;93781.22;;;2.38;76.02
10079;BME280;5078;42.544;22.966;2024-03-06T04:33:17;93805.06;;;2.56;75.53
10079;BME280;5078;42.544;22.966;2024-03-06T04:35:43;93813.41;;;2.63;74.62
10079;BME280;5078;42.544;22.966;2024-03-06T04:38:12;93785.09;;;2.41;74.96
10079;BME280;5078;42.544;22.966;2024-03-06T04:40:39;93809.03;;;2.35;75.26
10079;BME280;5078;42.544;22.966;2024-03-06T04:43:06;93806.50;;;2.35;75.22
10079;BME280;5078;42.544;22.966;2024-03-06T04:45:33;93818.50;;;2.23;75.77
10079;BME280;5078;42.544;22.966;2024-03-06T04:48:00;93812.06;;;2.32;75.23
10079;BME280;5078;42.544;22.966;2024-03-06T04:50:26;93797.91;;;2.29;74.79
10079;BME280;5078;42.544;22.966;2024-03-06T04:52:53;93813.41;;;2.11;75.46
10079;BME280;5078;42.544;22.966;2024-03-06T04:55:22;93800.28;;;2.19;75.34
10079;BME280;5078;42.544;22.966;2024-03-06T04:57:51;93809.38;;;2.27;74.65
10079;BME280;5078;42.544;22.966;2024-03-06T05:00:18;93777.03;;;1.69;76.01
10079;BME280;5078;42.544;22.966;2024-03-06T05:02:45;93828.00;;;1.99;76.03
10079;BME280;5078;42.544;22.966;2024-03-06T05:05:12;93819.31;;;2.12;75.60
10079;BME280;5078;42.544;22.966;2024-03-06T05:07:38;93834.84;;;2.33;75.70
10079;BME280;5078;42.544;22.966;2024-03-06T05:10:06;93827.09;;;2.05;76.46
10079;BME280;5078;42.544;22.966;2024-03-06T05:12:35;93792.09;;;1.94;76.13
10079;BME280;5078;42.544;22.966;2024-03-06T05:15:02;93842.91;;;2.14;76.28
10079;BME280;5078;42.544;22.966;2024-03-06T05:17:29;93832.38;;;2.38;75.34
10079;BME280;5078;42.544;22.966;2024-03-06T05:19:56;93842.25;;;2.58;75.13
10079;BME280;5078;42.544;22.966;2024-03-06T05:22:22;93800.47;;;2.29;74.64
10079;BME280;5078;42.544;22.966;2024-03-06T05:24:49;93836.00;;;2.66;74.37
10079;BME280;5078;42.544;22.966;2024-03-06T05:27:16;93844.25;;;2.44;75.20
10079;BME280;5078;42.544;22.966;2024-03-06T05:29:44;93843.34;;;2.62;74.69
10079;BME280;5078;42.544;22.966;2024-03-06T05:32:11;93843.34;;;2.62;75.03
10079;BME280;5078;42.544;22.966;2024-03-06T05:34:38;93868.66;;;2.24;76.17
10079;BME280;5078;42.544;22.966;2024-03-06T05:37:05;93853.19;;;2.30;75.67
10079;BME280;5078;42.544;22.966;2024-03-06T05:39:32;93851.06;;;2.51;75.22
10079;BME280;5078;42.544;22.966;2024-03-06T05:42:02;93864.84;;;2.89;74.31
10079;BME280;5078;42.544;22.966;2024-03-06T05:44:29;93856.50;;;2.82;73.52
10079;BME280;5078;42.544;22.966;2024-03-06T05:46:58;93860.47;;;2.10;76.37
10079;BME280;5078;42.544;22.966;2024-03-06T05:49:26;93876.00;;;2.09;76.86
10079;BME280;5078;42.544;22.966;2024-03-06T05:51:53;93867.53;;;2.31;76.40
10079;BME280;5078;42.544;22.966;2024-03-06T05:54:20;93874.88;;;2.39;75.79
10079;BME280;5078;42.544;22.966;2024-03-06T05:56:48;93876.47;;;2.69;74.10
10079;BME280;5078;42.544;22.966;2024-03-06T05:59:15;93866.94;;;2.92;73.79
10079;BME280;5078;42.544;22.966;2024-03-06T06:01:41;93832.56;;;2.49;74.52
10079;BME280;5078;42.544;22.966;2024-03-06T06:04:10;93871.66;;;2.84;74.11
10079;BME280;5078;42.544;22.966;2024-03-06T06:06:36;93880.56;;;2.70;74.89
10079;BME280;5078;42.544;22.966;2024-03-06T06:09:04;93883.53;;;2.90;73.21
10079;BME280;5078;42.544;22.966;2024-03-06T06:11:31;93886.28;;;3.00;74.87
10079;BME280;5078;42.544;22.966;2024-03-06T06:13:58;93883.25;;;3.03;73.88
10079;BME280;5078;42.544;22.966;2024-03-06T06:16:25;93886.41;;;2.93;73.82
10079;BME280;5078;42.544;22.966;2024-03-06T06:18:51;93879.66;;;2.48;74.59
10079;BME280;5078;42.544;22.966;2024-03-06T06:21:20;93866.16;;;3.20;72.40
10079;BME280;5078;42.544;22.966;2024-03-06T06:23:46;93877.22;;;3.71;71.47
10079;BME280;5078;42.544;22.966;2024-03-06T06:26:14;93873.75;;;3.77;71.50
10079;BME280;5078;42.544;22.966;2024-03-06T06:28:41;93863.28;;;4.17;70.41
10079;BME280;5078;42.544;22.966;2024-03-06T06:31:07;93867.97;;;4.63;69.43
10079;BME280;5078;42.544;22.966;2024-03-06T06:33:34;93866.38;;;5.27;66.79
10079;BME280;5078;42.544;22.966;2024-03-06T06:36:01;93869.78;;;5.11;67.78
10079;BME280;5078;42.544;22.966;2024-03-06T06:38:29;93863.28;;;5.57;65.61
10079;BME280;5078;42.544;22.966;2024-03-06T06:40:56;93861.72;;;5.56;65.49
10079;BME280;5078;42.544;22.966;2024-03-06T06:43:22;93867.25;;;6.02;64.11
10079;BME280;5078;42.544;22.966;2024-03-06T06:45:53;93871.53;;;5.59;65.16
10079;BME280;5078;42.544;22.966;2024-03-06T06:48:19;93826.75;;;4.97;66.47
10079;BME280;5078;42.544;22.966;2024-03-06T06:50:46;93832.59;;;4.92;67.21
10079;BME280;5078;42.544;22.966;2024-03-06T06:53:13;93853.66;;;5.16;67.80
10079;BME280;5078;42.544;22.966;2024-03-06T06:55:41;93863.91;;;6.48;64.63
10079;BME280;5078;42.544;22.966;2024-03-06T06:58:08;93865.97;;;6.46;63.84
10079;BME280;5078;42.544;22.966;2024-03-06T07:00:35;93860.59;;;6.06;65.50
10079;BME280;5078;42.544;22.966;2024-03-06T07:03:03;93844.59;;;6.46;64.70
10079;BME280;5078;42.544;22.966;2024-03-06T07:05:29;93862.66;;;7.43;61.78
10079;BME280;5078;42.544;22.966;2024-03-06T07:07:56;93858.91;;;6.26;65.47
10079;BME280;5078;42.544;22.966;2024-03-06T07:10:23;93869.88;;;6.59;64.73
10079;BME280;5078;42.544;22.966;2024-03-06T07:12:51;93865.19;;;7.08;63.37
10079;BME280;5078;42.544;22.966;2024-03-06T07:15:20;93861.16;;;7.62;61.31
10079;BME280;5078;42.544;22.966;2024-03-06T07:17:46;93859.81;;;8.46;59.03
10079;BME280;5078;42.544;22.966;2024-03-06T07:20:14;93870.09;;;8.71;59.11
10079;BME280;5078;42.544;22.966;2024-03-06T07:22:40;93865.28;;;9.08;58.32
10079;BME280;5078;42.544;22.966;2024-03-06T07:25:08;93852.53;;;9.17;56.71
10079;BME280;5078;42.544;22.966;2024-03-06T07:27:35;93862.81;;;8.78;58.64
10079;BME280;5078;42.544;22.966;2024-03-06T07:30:03;93864.38;;;9.33;57.37
10079;BME280;5078;42.544;22.966;2024-03-06T07:32:30;93807.16;;;8.91;57.22
10079;BME280;5078;42.544;22.966;2024-03-06T07:34:57;93870.72;;;9.51;57.11
10079;BME280;5078;42.544;22.966;2024-03-06T07:37:25;93863.47;;;9.87;57.09
10079;BME280;5078;42.544;22.966;2024-03-06T07:39:51;93834.19;;;9.91;55.44
10079;BME280;5078;42.544;22.966;2024-03-06T07:42:18;93844.63;;;10.10;55.89
10079;BME280;5078;42.544;22.966;2024-03-06T07:44:45;93862.00;;;10.09;56.86
10079;BME280;5078;42.544;22.966;2024-03-06T07:47:13;93863.97;;;10.51;56.25
10079;BME280;5078;42.544;22.966;2024-03-06T07:49:40;93856.09;;;9.70;58.07
10079;BME280;5078;42.544;22.966;2024-03-06T07:52:06;93858.72;;;10.33;56.89
10079;BME280;5078;42.544;22.966;2024-03-06T07:54:33;93832.47;;;10.15;57.06
10079;BME280;5078;42.544;22.966;2024-03-06T07:57:00;93850.16;;;11.03;54.66
10079;BME280;5078;42.544;22.966;2024-03-06T07:59:27;93851.00;;;11.17;54.18
10079;BME280;5078;42.544;22.966;2024-03-06T08:01:53;93850.81;;;11.51;53.91
10079;BME280;5078;42.544;22.966;2024-03-06T08:04:22;93850.97;;;11.79;52.42
10079;BME280;5078;42.544;22.966;2024-03-06T08:06:49;93823.25;;;10.75;55.12
10079;BME280;5078;42.544;22.966;2024-03-06T08:09:16;93822.94;;;11.57;53.68
10079;BME280;5078;42.544;22.966;2024-03-06T08:11:44;93856.63;;;11.62;53.02
10079;BME280;5078;42.544;22.966;2024-03-06T08:14:11;93849.25;;;11.88;51.32
10079;BME280;5078;42.544;22.966;2024-03-06T08:16:40;93858.56;;;12.07;51.77
10079;BME280;5078;42.544;22.966;2024-03-06T08:19:07;93855.63;;;12.28;50.48
10079;BME280;5078;42.544;22.966;2024-03-06T08:21:36;93858.94;;;12.47;50.23
10079;BME280;5078;42.544;22.966;2024-03-06T08:24:03;93862.84;;;11.98;51.88
10079;BME280;5078;42.544;22.966;2024-03-06T08:26:29;93855.63;;;11.95;51.74
10079;BME280;5078;42.544;22.966;2024-03-06T08:28:57;93859.81;;;12.56;49.67
10079;BME280;5078;42.544;22.966;2024-03-06T08:31:23;93866.16;;;12.04;51.44
10079;BME280;5078;42.544;22.966;2024-03-06T08:33:50;93814.81;;;11.63;52.56
10079;BME280;5078;42.544;22.966;2024-03-06T08:36:18;93853.19;;;11.66;52.53
10079;BME280;5078;42.544;22.966;2024-03-06T08:38:48;93842.34;;;12.43;50.58
10079;BME280;5078;42.544;22.966;2024-03-06T08:41:15;93856.91;;;12.30;51.03
10079;BME280;5078;42.544;22.966;2024-03-06T08:43:42;93850.00;;;12.66;49.92
10079;BME280;5078;42.544;22.966;2024-03-06T08:46:08;93843.91;;;12.98;49.82
10079;BME280;5078;42.544;22.966;2024-03-06T08:48:35;93855.69;;;13.09;49.18
10079;BME280;5078;42.544;22.966;2024-03-06T08:51:03;93846.38;;;13.44;48.64
10079;BME280;5078;42.544;22.966;2024-03-06T08:53:35;93849.53;;;13.55;46.83
10079;BME280;5078;42.544;22.966;2024-03-06T08:56:04;93848.84;;;13.49;47.89
10079;BME280;5078;42.544;22.966;2024-03-06T08:58:31;93841.78;;;13.28;48.17
10079;BME280;5078;42.544;22.966;2024-03-06T09:00:58;93846.88;;;13.69;46.72
10079;BME280;5078;42.544;22.966;2024-03-06T09:03:25;93848.97;;;13.80;45.67
10079;BME280;5078;42.544;22.966;2024-03-06T09:05:51;93846.63;;;14.23;44.59
10079;BME280;5078;42.544;22.966;2024-03-06T09:08:19;93846.38;;;14.55;44.30
10079;BME280;5078;42.544;22.966;2024-03-06T09:10:46;93755.63;;;14.13;42.14
10079;BME280;5078;42.544;22.966;2024-03-06T09:13:14;93845.53;;;14.77;43.28
10079;BME280;5078;42.544;22.966;2024-03-06T09:15:41;93844.69;;;14.99;42.39
10079;BME280;5078;42.544;22.966;2024-03-06T09:18:08;93807.72;;;15.31;41.40
10079;BME280;5078;42.544;22.966;2024-03-06T09:20:35;93830.22;;;15.67;41.38
10079;BME280;5078;42.544;22.966;2024-03-06T09:23:01;93845.09;;;15.49;41.33
10079;BME280;5078;42.544;22.966;2024-03-06T09:25:28;93837.22;;;16.18;39.42
10079;BME280;5078;42.544;22.966;2024-03-06T09:27:55;93797.13;;;15.88;40.22
10079;BME280;5078;42.544;22.966;2024-03-06T09:30:23;93826.50;;;15.68;40.16
10079;BME280;5078;42.544;22.966;2024-03-06T09:32:50;93829.72;;;15.99;40.23
10079;BME280;5078;42.544;22.966;2024-03-06T09:35:17;93812.66;;;16.57;38.91
10079;BME280;5078;42.544;22.966;2024-03-06T09:37:45;93815.75;;;16.50;38.50
10079;BME280;5078;42.544;22.966;2024-03-06T09:40:19;93817.59;;;15.69;40.75
10079;BME280;5078;42.544;22.966;2024-03-06T09:42:47;93809.94;;;16.36;38.59
10079;BME280;5078;42.544;22.966;2024-03-06T09:45:14;93810.59;;;16.16;39.07
10079;BME280;5078;42.544;22.966;2024-03-06T09:47:42;93807.13;;;16.96;37.88
10079;BME280;5078;42.544;22.966;2024-03-06T09:50:10;93810.78;;;17.24;37.23
10079;BME280;5078;42.544;22.966;2024-03-06T09:52:36;93806.63;;;17.73;35.83
10079;BME280;5078;42.544;22.966;2024-03-06T09:55:04;93802.00;;;17.70;36.41
10079;BME280;5078;42.544;22.966;2024-03-06T09:57:35;93779.06;;;16.12;38.20
10079;BME280;5078;42.544;22.966;2024-03-06T10:00:02;93799.59;;;16.48;38.64
10079;BME280;5078;42.544;22.966;2024-03-06T10:02:37;93790.00;;;16.69;37.77
10079;BME280;5078;42.544;22.966;2024-03-06T10:05:20;93774.31;;;17.40;35.76
10079;BME280;5078;42.544;22.966;2024-03-06T10:07:47;93797.59;;;17.62;34.32
10079;BME280;5078;42.544;22.966;2024-03-06T10:10:14;93790.16;;;16.93;36.00
10079;BME280;5078;42.544;22.966;2024-03-06T10:12:41;93769.56;;;17.13;34.92
10079;BME280;5078;42.544;22.966;2024-03-06T10:15:09;93749.81;;;17.15;34.17
10079;BME280;5078;42.544;22.966;2024-03-06T10:17:37;93780.63;;;17.18;35.51
10079;BME280;5078;42.544;22.966;2024-03-06T10:20:17;93783.59;;;17.58;33.57
10079;BME280;5078;42.544;22.966;2024-03-06T10:22:44;93776.09;;;17.27;33.32
10079;BME280;5078;42.544;22.966;2024-03-06T10:25:11;93750.56;;;15.73;36.54
10079;BME280;5078;42.544;22.966;2024-03-06T10:27:38;93784.72;;;16.23;34.42
10079;BME280;5078;42.544;22.966;2024-03-06T10:30:06;93782.69;;;15.73;35.50
10079;BME280;5078;42.544;22.966;2024-03-06T10:32:36;93743.94;;;16.30;35.36
10079;BME280;5078;42.544;22.966;2024-03-06T10:35:04;93770.28;;;16.63;35.20
10079;BME280;5078;42.544;22.966;2024-03-06T10:37:33;93769.06;;;16.69;34.90
10079;BME280;5078;42.544;22.966;2024-03-06T10:40:02;93768.34;;;17.51;33.44
10079;BME280;5078;42.544;22.966;2024-03-06T10:42:32;93759.69;;;17.18;33.57
10079;BME280;5078;42.544;22.966;2024-03-06T10:44:59;93752.38;;;17.44;32.55
10079;BME280;5078;42.544;22.966;2024-03-06T10:47:28;93755.56;;;17.09;33.08
10079;BME280;5078;42.544;22.966;2024-03-06T10:49:55;93752.91;;;17.17;32.56
10079;BME280;5078;42.544;22.966;2024-03-06T10:52:27;93731.53;;;16.57;33.98
10079;BME280;5078;42.544;22.966;2024-03-06T10:54:59;93741.06;;;17.11;33.20
10079;BME280;5078;42.544;22.966;2024-03-06T10:57:26;93733.53;;;17.30;32.69
10079;BME280;5078;42.544;22.966;2024-03-06T10:59:53;93737.22;;;17.50;32.05
10079;BME280;5078;42.544;22.966;2024-03-06T11:02:22;93729.25;;;17.26;32.35
10079;BME280;5078;42.544;22.966;2024-03-06T11:04:50;93728.53;;;17.37;31.97
10079;BME280;5078;42.544;22.966;2024-03-06T11:07:18;93696.59;;;17.44;32.26
10079;BME280;5078;42.544;22.966;2024-03-06T11:09:45;93719.53;;;18.25;30.52
10079;BME280;5078;42.544;22.966;2024-03-06T11:12:32;93712.38;;;18.58;29.64
10079;BME280;5078;42.544;22.966;2024-03-06T11:14:59;93714.06;;;18.42;29.79
10079;BME280;5078;42.544;22.966;2024-03-06T11:17:26;93714.88;;;18.55;29.12
10079;BME280;5078;42.544;22.966;2024-03-06T11:20:13;93709.84;;;17.92;30.18
10079;BME280;5078;42.544;22.966;2024-03-06T11:23:02;93706.63;;;18.20;30.22
10079;BME280;5078;42.544;22.966;2024-03-06T11:26:04;93699.81;;;17.29;31.75
10079;BME280;5078;42.544;22.966;2024-03-06T11:28:33;93698.03;;;17.86;30.66
10079;BME280;5078;42.544;22.966;2024-03-06T11:31:01;93701.44;;;16.71;32.04
10079;BME280;5078;42.544;22.966;2024-03-06T11:33:34;93700.09;;;16.86;32.46
10079;BME280;5078;42.544;22.966;2024-03-06T11:36:16;93681.91;;;17.10;31.63
10079;BME280;5078;42.544;22.966;2024-03-06T11:38:48;93689.03;;;17.42;31.90
10079;BME280;5078;42.544;22.966;2024-03-06T11:41:18;93672.91;;;17.52;30.83
10079;BME280;5078;42.544;22.966;2024-03-06T11:43:48;93690.00;;;17.59;32.09
10079;BME280;5078;42.544;22.966;2024-03-06T11:46:15;93674.97;;;17.80;31.46
10079;BME280;5078;42.544;22.966;2024-03-06T11:48:43;93662.47;;;17.32;31.83
10079;BME280;5078;42.544;22.966;2024-03-06T11:51:10;93669.59;;;16.40;33.20
10079;BME280;5078;42.544;22.966;2024-03-06T11:53:37;93680.06;;;16.02;34.21
10079;BME280;5078;42.544;22.966;2024-03-06T11:56:06;93674.97;;;16.35;34.01
10079;BME280;5078;42.544;22.966;2024-03-06T11:58:34;93658.47;;;16.43;33.97
10079;BME280;5078;42.544;22.966;2024-03-06T12:01:02;93681.34;;;16.25;34.63
10079;BME280;5078;42.544;22.966;2024-03-06T12:03:29;93645.66;;;15.91;35.38
10079;BME280;5078;42.544;22.966;2024-03-06T12:05:56;93673.69;;;16.12;35.08
10079;BME280;5078;42.544;22.966;2024-03-06T12:08:23;93674.13;;;15.84;36.14
10079;BME280;5078;42.544;22.966;2024-03-06T12:10:50;93682.81;;;15.33;36.40
10079;BME280;5078;42.544;22.966;2024-03-06T12:13:17;93680.91;;;15.77;36.38
10079;BME280;5078;42.544;22.966;2024-03-06T12:15:46;93683.41;;;15.47;37.00
10079;BME280;5078;42.544;22.966;2024-03-06T12:18:16;93644.13;;;15.18;36.96
10079;BME280;5078;42.544;22.966;2024-03-06T12:20:43;93678.59;;;15.84;36.06
10079;BME280;5078;42.544;22.966;2024-03-06T12:23:19;93669.38;;;16.16;35.34
10079;BME280;5078;42.544;22.966;2024-03-06T12:25:47;93676.00;;;16.13;34.59
10079;BME280;5078;42.544;22.966;2024-03-06T12:28:14;93667.97;;;15.89;35.16
10079;BME280;5078;42.544;22.966;2024-03-06T12:30:43;93665.31;;;15.17;35.95
10079;BME280;5078;42.544;22.966;2024-03-06T12:33:10;93673.75;;;15.14;36.99
10079;BME280;5078;42.544;22.966;2024-03-06T12:35:41;93668.41;;;14.28;39.08
10079;BME280;5078;42.544;22.966;2024-03-06T12:38:14;93668.81;;;14.04;39.85
10079;BME280;5078;42.544;22.966;2024-03-06T12:40:41;93642.03;;;14.21;39.17
10079;BME280;5078;42.544;22.966;2024-03-06T12:43:09;93655.75;;;14.43;38.60
10079;BME280;5078;42.544;22.966;2024-03-06T12:45:36;93677.75;;;14.59;38.64
10079;BME280;5078;42.544;22.966;2024-03-06T12:48:03;93662.66;;;14.39;39.11
10079;BME280;5078;42.544;22.966;2024-03-06T12:50:31;93664.19;;;14.49;38.73
10079;BME280;5078;42.544;22.966;2024-03-06T12:52:59;93667.59;;;14.58;37.94
10079;BME280;5078;42.544;22.966;2024-03-06T12:55:26;93642.34;;;14.28;39.05
10079;BME280;5078;42.544;22.966;2024-03-06T12:57:52;93665.09;;;14.36;40.35
10079;BME280;5078;42.544;22.966;2024-03-06T13:00:20;93674.38;;;14.20;40.83
10079;BME280;5078;42.544;22.966;2024-03-06T13:02:46;93673.59;;;14.19;41.08
10079;BME280;5078;42.544;22.966;2024-03-06T13:05:13;93665.13;;;14.05;41.61
10079;BME280;5078;42.544;22.966;2024-03-06T13:07:42;93665.03;;;13.79;42.64
10079;BME280;5078;42.544;22.966;2024-03-06T13:10:10;93673.53;;;13.62;43.33